Shokyu Maru — JG5288 — position and weather

sailwx.info

Track history (hours):
 
Tides and Currents Weather Stations Pressure Air Temp Water Temp Dewpoint Dewpoint Depression Visibility Wind Speed Wind Dir Waves Ship Positions

Shokyu Maru

Last reported at 2017-Jan-17 06:33 UTC. Time now 2017-Jan-17 06:57 UTC.
Position N 35°31' E 139°46'.

Length 91 m; draft 3.8 m.

Type: Ship. MMSI: 431000253.

Date/timePositionNaut miles runAvg speedWind from/ knotsBaromVisibWave heightAir tempDewpointWater temp
2017-Jan-17 06:33N 35°31' E 139°46'0 0.0
2017-Jan-17 05:30N 35°31' E 139°46'4 3.8
2017-Jan-17 04:33N 35°29' E 139°42'7 6.9
2017-Jan-17 03:33N 35°30' E 139°51'1111.0
2017-Jan-17 02:33N 35°39' E 139°58'1 0.3
2017-Jan-16 22:10N 35°40' E 139°57'4 7.2
2017-Jan-16 21:33N 35°36' E 139°56'1 1.1
2017-Jan-16 20:33N 35°35' E 139°55'0 0.0
2017-Jan-16 19:33N 35°35' E 139°55'0 0.0
2017-Jan-16 18:33N 35°35' E 139°55'0 0.0
2017-Jan-16 17:33N 35°35' E 139°55'0 0.0
2017-Jan-16 16:27N 35°35' E 139°55'0 0.0
2017-Jan-16 15:33N 35°35' E 139°55'0 0.0
2017-Jan-16 14:27N 35°35' E 139°55'0 0.0
2017-Jan-16 13:33N 35°35' E 139°55'0 0.0
2017-Jan-16 12:30N 35°35' E 139°55'0 0.0
2017-Jan-16 11:33N 35°35' E 139°55'0 0.0
2017-Jan-16 10:30N 35°35' E 139°55'7 6.9
2017-Jan-16 09:33N 35°30' E 139°60'1 0.6
2017-Jan-16 07:22N 35°29' E 140°01'0 0.0
2017-Jan-16 06:28N 35°29' E 140°01'0 0.0
2017-Jan-16 03:34N 35°29' E 140°01'1111.2
2017-Jan-16 02:33N 35°40' E 139°57'1 0.1
2017-Jan-15 22:33N 35°39' E 139°58'5 4.8
2017-Jan-15 21:31N 35°35' E 139°55'0 0.0
2017-Jan-15 20:28N 35°35' E 139°55'0 0.0
2017-Jan-15 19:31N 35°35' E 139°55'0 0.0
2017-Jan-15 18:28N 35°35' E 139°55'0 0.0
2017-Jan-15 17:31N 35°35' E 139°55'0 0.0
2017-Jan-15 16:31N 35°35' E 139°55'0 0.0
2017-Jan-15 15:31N 35°35' E 139°55'0 0.1
2017-Jan-15 14:31N 35°35' E 139°55'0 0.0
2017-Jan-15 13:07N 35°35' E 139°55'0 0.0
2017-Jan-15 11:13N 35°35' E 139°55'0 0.1
2017-Jan-15 09:32N 35°35' E 139°55'9 9.3
2017-Jan-15 08:33N 35°28' E 139°47'7 7.0
2017-Jan-15 07:31N 35°24' E 139°40'0 0.0
2017-Jan-15 06:28N 35°24' E 139°40'0 0.0
2017-Jan-15 05:31N 35°24' E 139°40'0 0.0
2017-Jan-15 04:31N 35°24' E 139°40'0 0.0
2017-Jan-15 03:31N 35°24' E 139°40'1 0.7
2017-Jan-15 02:34N 35°24' E 139°40'5 4.5
2017-Jan-15 01:31N 35°29' E 139°39'0 0.0
2017-Jan-15 00:31N 35°29' E 139°39'0 0.0
2017-Jan-14 23:31N 35°29' E 139°39'0 0.0
2017-Jan-14 22:31N 35°29' E 139°39'0 0.0
2017-Jan-14 21:31N 35°29' E 139°39'0 0.0
2017-Jan-14 20:31N 35°29' E 139°39'0 0.0
2017-Jan-14 19:31N 35°29' E 139°39'0 0.0
2017-Jan-14 18:31N 35°29' E 139°39'0 0.0
2017-Jan-14 17:31N 35°29' E 139°39'0 0.0
2017-Jan-14 16:31N 35°29' E 139°39'0 0.0
2017-Jan-14 15:31N 35°29' E 139°39'0 0.0
2017-Jan-14 14:31N 35°29' E 139°39'0 0.0
2017-Jan-14 13:31N 35°29' E 139°39'0 0.0
2017-Jan-14 12:31N 35°29' E 139°39'0 0.0
2017-Jan-14 11:31N 35°29' E 139°39'0 0.0
2017-Jan-14 10:31N 35°29' E 139°39'0 0.0
2017-Jan-14 09:31N 35°29' E 139°39'0 0.0
2017-Jan-14 08:31N 35°29' E 139°39'0 0.0
2017-Jan-14 07:31N 35°29' E 139°39'0 0.0
2017-Jan-14 06:31N 35°29' E 139°39'0 0.0
2017-Jan-14 05:31N 35°29' E 139°39'1 1.5
2017-Jan-14 04:33N 35°27' E 139°40'1010.2
2017-Jan-14 03:33N 35°31' E 139°52'10 2.3
2017-Jan-13 23:15N 35°41' E 139°56'2 1.0
2017-Jan-13 21:33N 35°39' E 139°58'5 4.4
2017-Jan-13 20:32N 35°35' E 139°55'0 0.0
2017-Jan-13 19:32N 35°35' E 139°55'0 0.0
2017-Jan-13 18:29N 35°35' E 139°55'0 0.0
2017-Jan-13 17:17N 35°35' E 139°55'0 0.1
2017-Jan-13 16:32N 35°35' E 139°55'0 0.0
2017-Jan-13 15:32N 35°35' E 139°55'0 0.0
2017-Jan-13 14:26N 35°35' E 139°55'0 0.0
2017-Jan-13 13:26N 35°35' E 139°55'6 6.4
2017-Jan-13 12:33N 35°31' E 139°50'3 3.3
2017-Jan-13 11:31N 35°31' E 139°46'0 0.0
2017-Jan-13 10:31N 35°31' E 139°46'0 0.0
2017-Jan-13 09:31N 35°31' E 139°46'0 0.0
2017-Jan-13 08:31N 35°31' E 139°46'0 0.0
2017-Jan-13 07:31N 35°31' E 139°46'0 0.0
2017-Jan-13 06:31N 35°31' E 139°46'0 0.2
2017-Jan-13 05:33N 35°31' E 139°46'3 2.9
2017-Jan-13 04:33N 35°28' E 139°47'1110.6
2017-Jan-13 03:33N 35°36' E 139°56'4 0.7
2017-Jan-12 21:33N 35°40' E 139°58'5 4.6
2017-Jan-12 20:32N 35°35' E 139°55'0 0.0
2017-Jan-12 19:29N 35°35' E 139°55'0 0.0
2017-Jan-12 18:32N 35°35' E 139°55'0 0.0
2017-Jan-12 17:32N 35°35' E 139°55'0 0.0
2017-Jan-12 16:32N 35°35' E 139°55'0 0.0
2017-Jan-12 15:32N 35°35' E 139°55'0 0.0
2017-Jan-12 14:29N 35°35' E 139°55'0 0.0
2017-Jan-12 13:29N 35°35' E 139°55'0 0.1
2017-Jan-12 12:29N 35°35' E 139°55'6 6.7
2017-Jan-12 11:33N 35°31' E 139°50'1010.4
2017-Jan-12 10:33N 35°24' E 139°41'1 1.2
2017-Jan-12 09:33N 35°24' E 139°40'0 0.0
2017-Jan-12 08:33N 35°24' E 139°40'0 0.0
2017-Jan-12 07:33N 35°24' E 139°40'0 0.0
2017-Jan-12 06:30N 35°24' E 139°40'0 0.0
2017-Jan-12 05:33N 35°24' E 139°40'0 0.0
2017-Jan-12 04:33N 35°24' E 139°40'0 0.1
2017-Jan-12 03:34N 35°24' E 139°39'8 8.1
2017-Jan-12 02:34N 35°28' E 139°48'1110.8
2017-Jan-12 01:32N 35°37' E 139°57'1 0.3
2017-Jan-11 21:21N 35°38' E 139°58'3 4.2
2017-Jan-11 20:31N 35°35' E 139°55'0 0.0
2017-Jan-11 19:28N 35°35' E 139°55'0 0.0
2017-Jan-11 18:31N 35°35' E 139°55'0 0.0
2017-Jan-11 17:31N 35°35' E 139°55'0 0.0
2017-Jan-11 16:31N 35°35' E 139°55'0 0.0
2017-Jan-11 15:31N 35°35' E 139°55'0 0.0
2017-Jan-11 14:31N 35°35' E 139°55'0 0.0
2017-Jan-11 13:31N 35°35' E 139°55'0 0.0
2017-Jan-11 12:31N 35°35' E 139°55'0 0.0
2017-Jan-11 11:28N 35°35' E 139°55'1 1.6
2017-Jan-11 10:33N 35°34' E 139°54'1110.6
2017-Jan-11 09:33N 35°27' E 139°45'5 4.8
2017-Jan-11 08:31N 35°24' E 139°40'0 0.0
2017-Jan-11 07:31N 35°24' E 139°40'0 0.0
2017-Jan-11 06:31N 35°24' E 139°40'0 0.0
2017-Jan-11 05:31N 35°24' E 139°40'0 0.0
2017-Jan-11 04:31N 35°24' E 139°40'7 7.4
2017-Jan-11 03:34N 35°28' E 139°47'1211.7
2017-Jan-11 02:33N 35°37' E 139°57'3 0.5
2017-Jan-10 21:33N 35°39' E 139°58'5 4.4
2017-Jan-10 20:31N 35°35' E 139°55'0 0.0
2017-Jan-10 17:28N 35°35' E 139°55'0 0.0
2017-Jan-10 16:31N 35°35' E 139°55'0 0.0
2017-Jan-10 15:31N 35°35' E 139°55'0 0.0
2017-Jan-10 14:31N 35°35' E 139°55'0 0.0
2017-Jan-10 13:31N 35°35' E 139°55'0 0.0
2017-Jan-10 12:31N 35°35' E 139°55'5 5.4
2017-Jan-10 11:33N 35°32' E 139°51'1110.8
2017-Jan-10 10:34N 35°24' E 139°41'2 1.7
2017-Jan-10 09:31N 35°24' E 139°40'0 0.0
2017-Jan-10 08:31N 35°24' E 139°40'0 0.0
2017-Jan-10 07:28N 35°24' E 139°40'0 0.0
2017-Jan-10 06:31N 35°24' E 139°40'0 0.0
2017-Jan-10 05:31N 35°24' E 139°40'3 2.8
2017-Jan-10 04:34N 35°25' E 139°43'1211.6
2017-Jan-10 03:34N 35°33' E 139°53'7 1.2
2017-Jan-09 21:33N 35°39' E 139°58'4 2.0
2017-Jan-09 19:23N 35°35' E 139°55'0 0.0
2017-Jan-09 18:29N 35°35' E 139°55'0 0.0
2017-Jan-09 17:29N 35°35' E 139°55'0 0.0
2017-Jan-09 16:32N 35°35' E 139°55'0 0.0
2017-Jan-09 15:32N 35°35' E 139°55'6 5.9
2017-Jan-09 14:33N 35°31' E 139°50'3 3.2
2017-Jan-09 13:31N 35°31' E 139°46'0 0.0
2017-Jan-09 12:31N 35°31' E 139°46'0 0.0
2017-Jan-09 11:31N 35°31' E 139°46'0 0.0
2017-Jan-09 10:31N 35°31' E 139°46'0 0.0
2017-Jan-09 09:28N 35°31' E 139°46'0 0.0
2017-Jan-09 08:31N 35°31' E 139°46'5 4.9
2017-Jan-09 07:34N 35°27' E 139°43'5 5.1
2017-Jan-09 06:31N 35°29' E 139°49'0 0.0
2017-Jan-09 05:31N 35°29' E 139°49'4 4.2
2017-Jan-09 04:33N 35°32' E 139°53'9 1.5
2017-Jan-08 22:26N 35°40' E 139°56'6 6.7
2017-Jan-08 21:32N 35°35' E 139°55'0 0.1
2017-Jan-08 20:33N 35°34' E 139°55'0 0.0
2017-Jan-08 19:30N 35°34' E 139°55'0 0.0
2017-Jan-08 18:27N 35°34' E 139°55'0 0.0
2017-Jan-08 16:33N 35°34' E 139°55'0 0.0
2017-Jan-08 15:22N 35°34' E 139°55'0 0.0
2017-Jan-08 14:29N 35°34' E 139°55'0 0.0
2017-Jan-08 13:27N 35°34' E 139°55'0 0.0
2017-Jan-08 12:29N 35°34' E 139°55'0 0.0
2017-Jan-08 11:29N 35°34' E 139°55'0 0.0
2017-Jan-08 10:20N 35°34' E 139°55'0 0.0
2017-Jan-08 09:32N 35°34' E 139°55'0 0.0
2017-Jan-08 08:29N 35°34' E 139°55'0 0.0
2017-Jan-08 07:26N 35°34' E 139°55'4 4.6
2017-Jan-08 06:33N 35°32' E 139°51'5 5.2
2017-Jan-08 05:33N 35°30' E 139°45'0 0.0
2017-Jan-08 04:33N 35°30' E 139°45'0 0.0
2017-Jan-08 03:33N 35°30' E 139°45'0 0.0
2017-Jan-08 02:33N 35°30' E 139°45'0 0.0
2017-Jan-08 01:33N 35°30' E 139°45'0 0.0
2017-Jan-08 00:33N 35°30' E 139°45'3 3.2
2017-Jan-07 23:34N 35°27' E 139°46'1111.3
2017-Jan-07 22:33N 35°35' E 139°56'7 6.5
2017-Jan-07 21:32N 35°41' E 139°59'0 0.0
2017-Jan-07 20:32N 35°41' E 139°59'0 0.0
2017-Jan-07 19:32N 35°41' E 139°59'0 0.0
2017-Jan-07 18:32N 35°41' E 139°59'0 0.0
2017-Jan-07 17:32N 35°41' E 139°59'0 0.0
2017-Jan-07 16:32N 35°41' E 139°59'0 0.0
2017-Jan-07 15:32N 35°41' E 139°59'0 0.0
2017-Jan-07 14:32N 35°41' E 139°59'0 0.0
2017-Jan-07 13:32N 35°41' E 139°59'0 0.0
2017-Jan-07 12:32N 35°41' E 139°59'0 0.0
2017-Jan-07 11:32N 35°41' E 139°59'0 0.0
2017-Jan-07 10:32N 35°41' E 139°59'0 0.0
2017-Jan-07 09:29N 35°41' E 139°59'0 0.0
2017-Jan-07 08:32N 35°41' E 139°59'0 0.0
2017-Jan-07 07:32N 35°41' E 139°59'  
Track history (hours):
 
Tides and Currents Weather Stations Pressure Air Temp Water Temp Dewpoint Dewpoint Depression Visibility Wind Speed Wind Dir Waves Ship Positions

Shokyu Maru

Last reported at 2017-Jan-17 06:33 UTC. Time now 2017-Jan-17 06:57 UTC.
Position N 35°31' E 139°46'.

Length 91 m; draft 3.8 m.

Type: Ship. MMSI: 431000253.

Date/timePositionNaut miles runAvg speedWind from/ knotsBaromVisibWave heightAir tempDewpointWater temp
2017-Jan-17 06:33N 35°31' E 139°46'0 0.0
2017-Jan-17 05:30N 35°31' E 139°46'4 3.8
2017-Jan-17 04:33N 35°29' E 139°42'7 6.9
2017-Jan-17 03:33N 35°30' E 139°51'1111.0
2017-Jan-17 02:33N 35°39' E 139°58'1 0.3
2017-Jan-16 22:10N 35°40' E 139°57'4 7.2
2017-Jan-16 21:33N 35°36' E 139°56'1 1.1
2017-Jan-16 20:33N 35°35' E 139°55'0 0.0
2017-Jan-16 19:33N 35°35' E 139°55'0 0.0
2017-Jan-16 18:33N 35°35' E 139°55'0 0.0
2017-Jan-16 17:33N 35°35' E 139°55'0 0.0
2017-Jan-16 16:27N 35°35' E 139°55'0 0.0
2017-Jan-16 15:33N 35°35' E 139°55'0 0.0
2017-Jan-16 14:27N 35°35' E 139°55'0 0.0
2017-Jan-16 13:33N 35°35' E 139°55'0 0.0
2017-Jan-16 12:30N 35°35' E 139°55'0 0.0
2017-Jan-16 11:33N 35°35' E 139°55'0 0.0
2017-Jan-16 10:30N 35°35' E 139°55'7 6.9
2017-Jan-16 09:33N 35°30' E 139°60'1 0.6
2017-Jan-16 07:22N 35°29' E 140°01'0 0.0
2017-Jan-16 06:28N 35°29' E 140°01'0 0.0
2017-Jan-16 03:34N 35°29' E 140°01'1111.2
2017-Jan-16 02:33N 35°40' E 139°57'1 0.1
2017-Jan-15 22:33N 35°39' E 139°58'5 4.8
2017-Jan-15 21:31N 35°35' E 139°55'0 0.0
2017-Jan-15 20:28N 35°35' E 139°55'0 0.0
2017-Jan-15 19:31N 35°35' E 139°55'0 0.0
2017-Jan-15 18:28N 35°35' E 139°55'0 0.0
2017-Jan-15 17:31N 35°35' E 139°55'0 0.0
2017-Jan-15 16:31N 35°35' E 139°55'0 0.0
2017-Jan-15 15:31N 35°35' E 139°55'0 0.1
2017-Jan-15 14:31N 35°35' E 139°55'0 0.0
2017-Jan-15 13:07N 35°35' E 139°55'0 0.0
2017-Jan-15 11:13N 35°35' E 139°55'0 0.1
2017-Jan-15 09:32N 35°35' E 139°55'9 9.3
2017-Jan-15 08:33N 35°28' E 139°47'7 7.0
2017-Jan-15 07:31N 35°24' E 139°40'0 0.0
2017-Jan-15 06:28N 35°24' E 139°40'0 0.0
2017-Jan-15 05:31N 35°24' E 139°40'0 0.0
2017-Jan-15 04:31N 35°24' E 139°40'0 0.0
2017-Jan-15 03:31N 35°24' E 139°40'1 0.7
2017-Jan-15 02:34N 35°24' E 139°40'5 4.5
2017-Jan-15 01:31N 35°29' E 139°39'0 0.0
2017-Jan-15 00:31N 35°29' E 139°39'0 0.0
2017-Jan-14 23:31N 35°29' E 139°39'0 0.0
2017-Jan-14 22:31N 35°29' E 139°39'0 0.0
2017-Jan-14 21:31N 35°29' E 139°39'0 0.0
2017-Jan-14 20:31N 35°29' E 139°39'0 0.0
2017-Jan-14 19:31N 35°29' E 139°39'0 0.0
2017-Jan-14 18:31N 35°29' E 139°39'0 0.0
2017-Jan-14 17:31N 35°29' E 139°39'0 0.0
2017-Jan-14 16:31N 35°29' E 139°39'0 0.0
2017-Jan-14 15:31N 35°29' E 139°39'0 0.0
2017-Jan-14 14:31N 35°29' E 139°39'0 0.0
2017-Jan-14 13:31N 35°29' E 139°39'0 0.0
2017-Jan-14 12:31N 35°29' E 139°39'0 0.0
2017-Jan-14 11:31N 35°29' E 139°39'0 0.0
2017-Jan-14 10:31N 35°29' E 139°39'0 0.0
2017-Jan-14 09:31N 35°29' E 139°39'0 0.0
2017-Jan-14 08:31N 35°29' E 139°39'0 0.0
2017-Jan-14 07:31N 35°29' E 139°39'0 0.0
2017-Jan-14 06:31N 35°29' E 139°39'0 0.0
2017-Jan-14 05:31N 35°29' E 139°39'1 1.5
2017-Jan-14 04:33N 35°27' E 139°40'1010.2
2017-Jan-14 03:33N 35°31' E 139°52'10 2.3
2017-Jan-13 23:15N 35°41' E 139°56'2 1.0
2017-Jan-13 21:33N 35°39' E 139°58'5 4.4
2017-Jan-13 20:32N 35°35' E 139°55'0 0.0
2017-Jan-13 19:32N 35°35' E 139°55'0 0.0
2017-Jan-13 18:29N 35°35' E 139°55'0 0.0
2017-Jan-13 17:17N 35°35' E 139°55'0 0.1
2017-Jan-13 16:32N 35°35' E 139°55'0 0.0
2017-Jan-13 15:32N 35°35' E 139°55'0 0.0
2017-Jan-13 14:26N 35°35' E 139°55'0 0.0
2017-Jan-13 13:26N 35°35' E 139°55'6 6.4
2017-Jan-13 12:33N 35°31' E 139°50'3 3.3
2017-Jan-13 11:31N 35°31' E 139°46'0 0.0
2017-Jan-13 10:31N 35°31' E 139°46'0 0.0
2017-Jan-13 09:31N 35°31' E 139°46'0 0.0
2017-Jan-13 08:31N 35°31' E 139°46'0 0.0
2017-Jan-13 07:31N 35°31' E 139°46'0 0.0
2017-Jan-13 06:31N 35°31' E 139°46'0 0.2
2017-Jan-13 05:33N 35°31' E 139°46'3 2.9
2017-Jan-13 04:33N 35°28' E 139°47'1110.6
2017-Jan-13 03:33N 35°36' E 139°56'4 0.7
2017-Jan-12 21:33N 35°40' E 139°58'5 4.6
2017-Jan-12 20:32N 35°35' E 139°55'0 0.0
2017-Jan-12 19:29N 35°35' E 139°55'0 0.0
2017-Jan-12 18:32N 35°35' E 139°55'0 0.0
2017-Jan-12 17:32N 35°35' E 139°55'0 0.0
2017-Jan-12 16:32N 35°35' E 139°55'0 0.0
2017-Jan-12 15:32N 35°35' E 139°55'0 0.0
2017-Jan-12 14:29N 35°35' E 139°55'0 0.0
2017-Jan-12 13:29N 35°35' E 139°55'0 0.1
2017-Jan-12 12:29N 35°35' E 139°55'6 6.7
2017-Jan-12 11:33N 35°31' E 139°50'1010.4
2017-Jan-12 10:33N 35°24' E 139°41'1 1.2
2017-Jan-12 09:33N 35°24' E 139°40'0 0.0
2017-Jan-12 08:33N 35°24' E 139°40'0 0.0
2017-Jan-12 07:33N 35°24' E 139°40'0 0.0
2017-Jan-12 06:30N 35°24' E 139°40'0 0.0
2017-Jan-12 05:33N 35°24' E 139°40'0 0.0
2017-Jan-12 04:33N 35°24' E 139°40'0 0.1
2017-Jan-12 03:34N 35°24' E 139°39'8 8.1
2017-Jan-12 02:34N 35°28' E 139°48'1110.8
2017-Jan-12 01:32N 35°37' E 139°57'1 0.3
2017-Jan-11 21:21N 35°38' E 139°58'3 4.2
2017-Jan-11 20:31N 35°35' E 139°55'0 0.0
2017-Jan-11 19:28N 35°35' E 139°55'0 0.0
2017-Jan-11 18:31N 35°35' E 139°55'0 0.0
2017-Jan-11 17:31N 35°35' E 139°55'0 0.0
2017-Jan-11 16:31N 35°35' E 139°55'0 0.0
2017-Jan-11 15:31N 35°35' E 139°55'0 0.0
2017-Jan-11 14:31N 35°35' E 139°55'0 0.0
2017-Jan-11 13:31N 35°35' E 139°55'0 0.0
2017-Jan-11 12:31N 35°35' E 139°55'0 0.0
2017-Jan-11 11:28N 35°35' E 139°55'1 1.6
2017-Jan-11 10:33N 35°34' E 139°54'1110.6
2017-Jan-11 09:33N 35°27' E 139°45'5 4.8
2017-Jan-11 08:31N 35°24' E 139°40'0 0.0
2017-Jan-11 07:31N 35°24' E 139°40'0 0.0
2017-Jan-11 06:31N 35°24' E 139°40'0 0.0
2017-Jan-11 05:31N 35°24' E 139°40'0 0.0
2017-Jan-11 04:31N 35°24' E 139°40'7 7.4
2017-Jan-11 03:34N 35°28' E 139°47'1211.7
2017-Jan-11 02:33N 35°37' E 139°57'3 0.5
2017-Jan-10 21:33N 35°39' E 139°58'5 4.4
2017-Jan-10 20:31N 35°35' E 139°55'0 0.0
2017-Jan-10 17:28N 35°35' E 139°55'0 0.0
2017-Jan-10 16:31N 35°35' E 139°55'0 0.0
2017-Jan-10 15:31N 35°35' E 139°55'0 0.0
2017-Jan-10 14:31N 35°35' E 139°55'0 0.0
2017-Jan-10 13:31N 35°35' E 139°55'0 0.0
2017-Jan-10 12:31N 35°35' E 139°55'5 5.4
2017-Jan-10 11:33N 35°32' E 139°51'1110.8
2017-Jan-10 10:34N 35°24' E 139°41'2 1.7
2017-Jan-10 09:31N 35°24' E 139°40'0 0.0
2017-Jan-10 08:31N 35°24' E 139°40'0 0.0
2017-Jan-10 07:28N 35°24' E 139°40'0 0.0
2017-Jan-10 06:31N 35°24' E 139°40'0 0.0
2017-Jan-10 05:31N 35°24' E 139°40'3 2.8
2017-Jan-10 04:34N 35°25' E 139°43'1211.6
2017-Jan-10 03:34N 35°33' E 139°53'7 1.2
2017-Jan-09 21:33N 35°39' E 139°58'4 2.0
2017-Jan-09 19:23N 35°35' E 139°55'0 0.0
2017-Jan-09 18:29N 35°35' E 139°55'0 0.0
2017-Jan-09 17:29N 35°35' E 139°55'0 0.0
2017-Jan-09 16:32N 35°35' E 139°55'0 0.0
2017-Jan-09 15:32N 35°35' E 139°55'6 5.9
2017-Jan-09 14:33N 35°31' E 139°50'3 3.2
2017-Jan-09 13:31N 35°31' E 139°46'0 0.0
2017-Jan-09 12:31N 35°31' E 139°46'0 0.0
2017-Jan-09 11:31N 35°31' E 139°46'0 0.0
2017-Jan-09 10:31N 35°31' E 139°46'0 0.0
2017-Jan-09 09:28N 35°31' E 139°46'0 0.0
2017-Jan-09 08:31N 35°31' E 139°46'5 4.9
2017-Jan-09 07:34N 35°27' E 139°43'5 5.1
2017-Jan-09 06:31N 35°29' E 139°49'0 0.0
2017-Jan-09 05:31N 35°29' E 139°49'4 4.2
2017-Jan-09 04:33N 35°32' E 139°53'9 1.5
2017-Jan-08 22:26N 35°40' E 139°56'6 6.7
2017-Jan-08 21:32N 35°35' E 139°55'0 0.1
2017-Jan-08 20:33N 35°34' E 139°55'0 0.0
2017-Jan-08 19:30N 35°34' E 139°55'0 0.0
2017-Jan-08 18:27N 35°34' E 139°55'0 0.0
2017-Jan-08 16:33N 35°34' E 139°55'0 0.0
2017-Jan-08 15:22N 35°34' E 139°55'0 0.0
2017-Jan-08 14:29N 35°34' E 139°55'0 0.0
2017-Jan-08 13:27N 35°34' E 139°55'0 0.0
2017-Jan-08 12:29N 35°34' E 139°55'0 0.0
2017-Jan-08 11:29N 35°34' E 139°55'0 0.0
2017-Jan-08 10:20N 35°34' E 139°55'0 0.0
2017-Jan-08 09:32N 35°34' E 139°55'0 0.0
2017-Jan-08 08:29N 35°34' E 139°55'0 0.0
2017-Jan-08 07:26N 35°34' E 139°55'4 4.6
2017-Jan-08 06:33N 35°32' E 139°51'5 5.2
2017-Jan-08 05:33N 35°30' E 139°45'0 0.0
2017-Jan-08 04:33N 35°30' E 139°45'0 0.0
2017-Jan-08 03:33N 35°30' E 139°45'0 0.0
2017-Jan-08 02:33N 35°30' E 139°45'0 0.0
2017-Jan-08 01:33N 35°30' E 139°45'0 0.0
2017-Jan-08 00:33N 35°30' E 139°45'3 3.2
2017-Jan-07 23:34N 35°27' E 139°46'1111.3
2017-Jan-07 22:33N 35°35' E 139°56'7 6.5
2017-Jan-07 21:32N 35°41' E 139°59'0 0.0
2017-Jan-07 20:32N 35°41' E 139°59'0 0.0
2017-Jan-07 19:32N 35°41' E 139°59'0 0.0
2017-Jan-07 18:32N 35°41' E 139°59'0 0.0
2017-Jan-07 17:32N 35°41' E 139°59'0 0.0
2017-Jan-07 16:32N 35°41' E 139°59'0 0.0
2017-Jan-07 15:32N 35°41' E 139°59'0 0.0
2017-Jan-07 14:32N 35°41' E 139°59'0 0.0
2017-Jan-07 13:32N 35°41' E 139°59'0 0.0
2017-Jan-07 12:32N 35°41' E 139°59'0 0.0
2017-Jan-07 11:32N 35°41' E 139°59'0 0.0
2017-Jan-07 10:32N 35°41' E 139°59'0 0.0
2017-Jan-07 09:29N 35°41' E 139°59'0 0.0
2017-Jan-07 08:32N 35°41' E 139°59'0 0.0
2017-Jan-07 07:32N 35°41' E 139°59'  

Dump ship's entire track history